sensor_id;sensor_type;location;lat;lon;timestamp;temperature;humidity
19180;DHT22;9722;48.754;8.868;2022-12-11T00:02:35;-2.70;95.50
19180;DHT22;9722;48.754;8.868;2022-12-11T00:05:55;-2.80;95.40
19180;DHT22;9722;48.754;8.868;2022-12-11T00:09:16;-3.00;95.50
19180;DHT22;9722;48.754;8.868;2022-12-11T00:12:37;-3.10;95.60
19180;DHT22;9722;48.754;8.868;2022-12-11T00:15:58;-3.20;95.70
19180;DHT22;9722;48.754;8.868;2022-12-11T00:19:18;-3.20;95.80
19180;DHT22;9722;48.754;8.868;2022-12-11T00:22:39;-3.30;95.90
19180;DHT22;9722;48.754;8.868;2022-12-11T00:26:00;-3.30;96.10
19180;DHT22;9722;48.754;8.868;2022-12-11T00:29:24;-3.20;96.10
19180;DHT22;9722;48.754;8.868;2022-12-11T00:32:44;-3.10;96.20
19180;DHT22;9722;48.754;8.868;2022-12-11T00:36:14;-3.10;96.10
19180;DHT22;9722;48.754;8.868;2022-12-11T00:39:36;-3.10;96.10
19180;DHT22;9722;48.754;8.868;2022-12-11T00:42:56;-3.10;96.00
19180;DHT22;9722;48.754;8.868;2022-12-11T00:46:17;-3.10;96.00
19180;DHT22;9722;48.754;8.868;2022-12-11T00:49:37;-3.00;96.10
19180;DHT22;9722;48.754;8.868;2022-12-11T00:52:58;-3.00;96.10
19180;DHT22;9722;48.754;8.868;2022-12-11T00:56:20;-3.00;96.10
19180;DHT22;9722;48.754;8.868;2022-12-11T00:59:41;-3.00;96.20
19180;DHT22;9722;48.754;8.868;2022-12-11T01:03:02;-3.00;96.30
19180;DHT22;9722;48.754;8.868;2022-12-11T01:06:25;-3.00;96.40
19180;DHT22;9722;48.754;8.868;2022-12-11T01:09:45;-3.00;96.50
19180;DHT22;9722;48.754;8.868;2022-12-11T01:13:25;-2.90;96.50
19180;DHT22;9722;48.754;8.868;2022-12-11T01:16:45;-2.80;96.60
19180;DHT22;9722;48.754;8.868;2022-12-11T01:20:06;-2.70;96.60
19180;DHT22;9722;48.754;8.868;2022-12-11T01:23:27;-2.60;96.60
19180;DHT22;9722;48.754;8.868;2022-12-11T01:26:47;-2.60;96.50
19180;DHT22;9722;48.754;8.868;2022-12-11T01:30:09;-2.60;96.40
19180;DHT22;9722;48.754;8.868;2022-12-11T01:33:30;-2.60;96.40
19180;DHT22;9722;48.754;8.868;2022-12-11T01:36:51;-2.60;96.40
19180;DHT22;9722;48.754;8.868;2022-12-11T01:40:17;-2.50;96.40
19180;DHT22;9722;48.754;8.868;2022-12-11T01:43:58;-2.60;96.40
19180;DHT22;9722;48.754;8.868;2022-12-11T01:47:19;-2.50;96.50
19180;DHT22;9722;48.754;8.868;2022-12-11T01:51:00;-2.50;96.50
19180;DHT22;9722;48.754;8.868;2022-12-11T01:54:23;-2.50;96.50
19180;DHT22;9722;48.754;8.868;2022-12-11T01:57:46;-2.50;96.50
19180;DHT22;9722;48.754;8.868;2022-12-11T02:01:11;-2.50;96.50
19180;DHT22;9722;48.754;8.868;2022-12-11T02:04:35;-2.50;96.50
19180;DHT22;9722;48.754;8.868;2022-12-11T02:07:59;-2.50;96.50
19180;DHT22;9722;48.754;8.868;2022-12-11T02:15:35;-2.50;96.50
19180;DHT22;9722;48.754;8.868;2022-12-11T02:19:07;-2.50;96.50
19180;DHT22;9722;48.754;8.868;2022-12-11T02:27:22;-2.70;96.40
19180;DHT22;9722;48.754;8.868;2022-12-11T02:30:17;-2.80;96.50
19180;DHT22;9722;48.754;8.868;2022-12-11T02:37:24;-3.00;96.70
19180;DHT22;9722;48.754;8.868;2022-12-11T02:40:48;-3.10;96.90
19180;DHT22;9722;48.754;8.868;2022-12-11T02:44:13;-3.20;97.00
19180;DHT22;9722;48.754;8.868;2022-12-11T02:47:34;-3.20;97.20
19180;DHT22;9722;48.754;8.868;2022-12-11T02:50:57;-3.20;97.30
19180;DHT22;9722;48.754;8.868;2022-12-11T02:54:23;-3.30;97.40
19180;DHT22;9722;48.754;8.868;2022-12-11T02:57:50;-3.30;97.60
19180;DHT22;9722;48.754;8.868;2022-12-11T03:01:12;-3.20;97.80
19180;DHT22;9722;48.754;8.868;2022-12-11T03:04:34;-3.10;98.00
19180;DHT22;9722;48.754;8.868;2022-12-11T03:07:55;-3.00;98.00
19180;DHT22;9722;48.754;8.868;2022-12-11T03:11:16;-2.80;98.10
19180;DHT22;9722;48.754;8.868;2022-12-11T03:14:38;-2.70;98.10
19180;DHT22;9722;48.754;8.868;2022-12-11T03:18:11;-2.50;98.10
19180;DHT22;9722;48.754;8.868;2022-12-11T03:21:48;-2.40;97.90
19180;DHT22;9722;48.754;8.868;2022-12-11T03:25:16;-2.30;97.70
19180;DHT22;9722;48.754;8.868;2022-12-11T03:29:00;-2.30;97.30
19180;DHT22;9722;48.754;8.868;2022-12-11T03:32:27;-2.30;97.20
19180;DHT22;9722;48.754;8.868;2022-12-11T03:35:55;-2.30;97.30
19180;DHT22;9722;48.754;8.868;2022-12-11T03:39:24;-2.30;97.40
19180;DHT22;9722;48.754;8.868;2022-12-11T03:42:49;-2.20;97.40
19180;DHT22;9722;48.754;8.868;2022-12-11T03:46:12;-2.20;97.10
19180;DHT22;9722;48.754;8.868;2022-12-11T03:49:37;-2.30;96.90
19180;DHT22;9722;48.754;8.868;2022-12-11T03:52:59;-2.30;96.70
19180;DHT22;9722;48.754;8.868;2022-12-11T03:56:21;-2.40;96.70
19180;DHT22;9722;48.754;8.868;2022-12-11T03:59:42;-2.40;96.80
19180;DHT22;9722;48.754;8.868;2022-12-11T04:03:03;-2.40;96.90
19180;DHT22;9722;48.754;8.868;2022-12-11T04:06:32;-2.30;97.00
19180;DHT22;9722;48.754;8.868;2022-12-11T04:09:53;-2.30;97.00
19180;DHT22;9722;48.754;8.868;2022-12-11T04:13:14;-2.30;97.00
19180;DHT22;9722;48.754;8.868;2022-12-11T04:16:34;-2.20;97.10
19180;DHT22;9722;48.754;8.868;2022-12-11T04:19:55;-2.20;97.00
19180;DHT22;9722;48.754;8.868;2022-12-11T04:23:34;-2.10;97.10
19180;DHT22;9722;48.754;8.868;2022-12-11T04:27:13;-2.10;97.10
19180;DHT22;9722;48.754;8.868;2022-12-11T04:30:54;-2.10;97.00
19180;DHT22;9722;48.754;8.868;2022-12-11T04:34:15;-2.00;97.00
19180;DHT22;9722;48.754;8.868;2022-12-11T04:37:35;-2.00;97.00
19180;DHT22;9722;48.754;8.868;2022-12-11T04:40:58;-1.90;97.00
19180;DHT22;9722;48.754;8.868;2022-12-11T04:44:19;-1.90;97.00
19180;DHT22;9722;48.754;8.868;2022-12-11T04:47:40;-1.90;97.00
19180;DHT22;9722;48.754;8.868;2022-12-11T04:51:01;-1.80;97.00
19180;DHT22;9722;48.754;8.868;2022-12-11T04:54:21;-1.80;97.00
19180;DHT22;9722;48.754;8.868;2022-12-11T04:57:42;-1.80;96.80
19180;DHT22;9722;48.754;8.868;2022-12-11T05:01:09;-1.80;96.80
19180;DHT22;9722;48.754;8.868;2022-12-11T05:04:32;-1.80;96.80
19180;DHT22;9722;48.754;8.868;2022-12-11T05:07:53;-1.90;96.60
19180;DHT22;9722;48.754;8.868;2022-12-11T05:11:14;-1.90;96.60
19180;DHT22;9722;48.754;8.868;2022-12-11T05:14:35;-1.90;96.50
19180;DHT22;9722;48.754;8.868;2022-12-11T05:17:55;-2.00;96.50
19180;DHT22;9722;48.754;8.868;2022-12-11T05:21:16;-2.00;96.40
19180;DHT22;9722;48.754;8.868;2022-12-11T05:24:36;-2.10;96.30
19180;DHT22;9722;48.754;8.868;2022-12-11T05:27:57;-2.10;96.30
19180;DHT22;9722;48.754;8.868;2022-12-11T05:31:19;-2.10;96.30
19180;DHT22;9722;48.754;8.868;2022-12-11T05:34:40;-2.10;96.40
19180;DHT22;9722;48.754;8.868;2022-12-11T05:38:01;-2.20;96.40
19180;DHT22;9722;48.754;8.868;2022-12-11T05:41:23;-2.20;96.40
19180;DHT22;9722;48.754;8.868;2022-12-11T05:44:44;-2.20;96.50
19180;DHT22;9722;48.754;8.868;2022-12-11T05:48:05;-2.20;96.40
19180;DHT22;9722;48.754;8.868;2022-12-11T05:51:26;-2.30;96.30
19180;DHT22;9722;48.754;8.868;2022-12-11T05:54:48;-2.40;96.30
19180;DHT22;9722;48.754;8.868;2022-12-11T05:58:09;-2.50;96.30
19180;DHT22;9722;48.754;8.868;2022-12-11T06:01:36;-2.60;96.40
19180;DHT22;9722;48.754;8.868;2022-12-11T06:04:57;-2.80;96.40
19180;DHT22;9722;48.754;8.868;2022-12-11T06:08:17;-3.00;96.50
19180;DHT22;9722;48.754;8.868;2022-12-11T06:11:38;-3.10;96.60
19180;DHT22;9722;48.754;8.868;2022-12-11T06:14:58;-3.20;96.60
19180;DHT22;9722;48.754;8.868;2022-12-11T06:18:19;-3.30;96.80
19180;DHT22;9722;48.754;8.868;2022-12-11T06:21:39;-3.40;96.90
19180;DHT22;9722;48.754;8.868;2022-12-11T06:25:00;-3.40;97.00
19180;DHT22;9722;48.754;8.868;2022-12-11T06:28:20;-3.50;97.10
19180;DHT22;9722;48.754;8.868;2022-12-11T06:31:41;-3.60;97.10
19180;DHT22;9722;48.754;8.868;2022-12-11T06:35:02;-3.60;97.20
19180;DHT22;9722;48.754;8.868;2022-12-11T06:38:22;-3.60;97.40
19180;DHT22;9722;48.754;8.868;2022-12-11T06:41:43;-3.70;97.30
19180;DHT22;9722;48.754;8.868;2022-12-11T06:45:04;-3.80;97.30
19180;DHT22;9722;48.754;8.868;2022-12-11T06:48:25;-3.80;97.30
19180;DHT22;9722;48.754;8.868;2022-12-11T06:51:45;-3.90;97.30
19180;DHT22;9722;48.754;8.868;2022-12-11T06:55:06;-4.00;97.60
19180;DHT22;9722;48.754;8.868;2022-12-11T06:58:27;-3.90;97.80
19180;DHT22;9722;48.754;8.868;2022-12-11T07:01:47;-3.90;97.80
19180;DHT22;9722;48.754;8.868;2022-12-11T07:05:08;-3.90;97.70
19180;DHT22;9722;48.754;8.868;2022-12-11T07:08:28;-3.90;97.70
19180;DHT22;9722;48.754;8.868;2022-12-11T07:11:52;-3.90;97.80
19180;DHT22;9722;48.754;8.868;2022-12-11T07:15:13;-3.90;97.80
19180;DHT22;9722;48.754;8.868;2022-12-11T07:18:33;-3.90;97.80
19180;DHT22;9722;48.754;8.868;2022-12-11T07:21:54;-3.80;97.90
19180;DHT22;9722;48.754;8.868;2022-12-11T07:25:14;-3.80;98.00
19180;DHT22;9722;48.754;8.868;2022-12-11T07:28:35;-3.70;98.10
19180;DHT22;9722;48.754;8.868;2022-12-11T07:31:55;-3.40;98.60
19180;DHT22;9722;48.754;8.868;2022-12-11T07:35:17;-3.10;98.20
19180;DHT22;9722;48.754;8.868;2022-12-11T07:38:38;-2.90;97.80
19180;DHT22;9722;48.754;8.868;2022-12-11T07:41:58;-2.80;97.50
19180;DHT22;9722;48.754;8.868;2022-12-11T07:45:19;-2.80;97.40
19180;DHT22;9722;48.754;8.868;2022-12-11T07:48:41;-2.70;97.30
19180;DHT22;9722;48.754;8.868;2022-12-11T07:52:02;-2.60;97.30
19180;DHT22;9722;48.754;8.868;2022-12-11T07:55:23;-2.30;97.80
19180;DHT22;9722;48.754;8.868;2022-12-11T07:58:44;-1.90;97.50
19180;DHT22;9722;48.754;8.868;2022-12-11T08:02:04;-1.80;96.40
19180;DHT22;9722;48.754;8.868;2022-12-11T08:05:25;-1.90;95.80
19180;DHT22;9722;48.754;8.868;2022-12-11T08:08:46;-1.90;95.90
19180;DHT22;9722;48.754;8.868;2022-12-11T08:12:06;-2.00;95.60
19180;DHT22;9722;48.754;8.868;2022-12-11T08:15:27;-2.20;95.60
19180;DHT22;9722;48.754;8.868;2022-12-11T08:18:48;-2.30;96.00
19180;DHT22;9722;48.754;8.868;2022-12-11T08:22:08;-2.20;96.20
19180;DHT22;9722;48.754;8.868;2022-12-11T08:25:29;-1.90;96.20
19180;DHT22;9722;48.754;8.868;2022-12-11T08:28:50;-1.80;95.60
19180;DHT22;9722;48.754;8.868;2022-12-11T08:32:11;-1.80;95.50
19180;DHT22;9722;48.754;8.868;2022-12-11T08:35:37;-1.80;95.30
19180;DHT22;9722;48.754;8.868;2022-12-11T08:38:59;-1.80;95.20
19180;DHT22;9722;48.754;8.868;2022-12-11T08:42:19;-1.80;95.10
19180;DHT22;9722;48.754;8.868;2022-12-11T08:45:40;-1.90;95.00
19180;DHT22;9722;48.754;8.868;2022-12-11T08:49:00;-1.90;95.10
19180;DHT22;9722;48.754;8.868;2022-12-11T08:52:22;-1.90;95.20
19180;DHT22;9722;48.754;8.868;2022-12-11T08:55:43;-1.80;95.40
19180;DHT22;9722;48.754;8.868;2022-12-11T08:59:03;-1.60;95.60
19180;DHT22;9722;48.754;8.868;2022-12-11T09:02:25;-1.30;95.30
19180;DHT22;9722;48.754;8.868;2022-12-11T09:05:46;-1.00;95.00
19180;DHT22;9722;48.754;8.868;2022-12-11T09:09:06;-0.80;94.50
19180;DHT22;9722;48.754;8.868;2022-12-11T09:12:27;-0.50;94.30
19180;DHT22;9722;48.754;8.868;2022-12-11T09:15:48;-0.20;94.00
19180;DHT22;9722;48.754;8.868;2022-12-11T09:19:12;0.10;93.40
19180;DHT22;9722;48.754;8.868;2022-12-11T09:22:33;0.30;93.20
19180;DHT22;9722;48.754;8.868;2022-12-11T09:25:54;0.90;93.20
19180;DHT22;9722;48.754;8.868;2022-12-11T09:29:14;1.60;92.40
19180;DHT22;9722;48.754;8.868;2022-12-11T09:32:35;2.60;91.00
19180;DHT22;9722;48.754;8.868;2022-12-11T09:35:59;3.40;86.50
19180;DHT22;9722;48.754;8.868;2022-12-11T09:39:20;3.60;83.90
19180;DHT22;9722;48.754;8.868;2022-12-11T09:42:54;4.50;82.80
19180;DHT22;9722;48.754;8.868;2022-12-11T09:46:17;5.40;78.50
19180;DHT22;9722;48.754;8.868;2022-12-11T09:49:40;5.30;74.50
19180;DHT22;9722;48.754;8.868;2022-12-11T09:53:15;4.60;73.80
19180;DHT22;9722;48.754;8.868;2022-12-11T09:56:51;4.00;75.20
19180;DHT22;9722;48.754;8.868;2022-12-11T10:00:23;3.90;75.60
19180;DHT22;9722;48.754;8.868;2022-12-11T10:07:37;6.30;68.80
19180;DHT22;9722;48.754;8.868;2022-12-11T10:11:07;6.90;65.60
19180;DHT22;9722;48.754;8.868;2022-12-11T10:14:46;6.90;64.70
19180;DHT22;9722;48.754;8.868;2022-12-11T10:18:12;6.80;64.20
19180;DHT22;9722;48.754;8.868;2022-12-11T10:21:39;6.60;64.30
19180;DHT22;9722;48.754;8.868;2022-12-11T10:25:04;6.40;63.80
19180;DHT22;9722;48.754;8.868;2022-12-11T10:28:27;6.00;64.30
19180;DHT22;9722;48.754;8.868;2022-12-11T10:31:57;5.70;64.60
19180;DHT22;9722;48.754;8.868;2022-12-11T10:39:18;5.30;66.10
19180;DHT22;9722;48.754;8.868;2022-12-11T10:42:39;5.10;66.60
19180;DHT22;9722;48.754;8.868;2022-12-11T10:45:59;5.00;66.80
19180;DHT22;9722;48.754;8.868;2022-12-11T10:49:26;4.80;67.10
19180;DHT22;9722;48.754;8.868;2022-12-11T10:52:47;4.70;67.30
19180;DHT22;9722;48.754;8.868;2022-12-11T10:56:08;4.50;67.40
19180;DHT22;9722;48.754;8.868;2022-12-11T10:59:48;4.30;67.60
19180;DHT22;9722;48.754;8.868;2022-12-11T11:03:23;4.20;68.20
19180;DHT22;9722;48.754;8.868;2022-12-11T11:06:44;4.10;68.50
19180;DHT22;9722;48.754;8.868;2022-12-11T11:13:32;4.10;68.60
19180;DHT22;9722;48.754;8.868;2022-12-11T11:16:56;4.10;68.80
19180;DHT22;9722;48.754;8.868;2022-12-11T11:20:26;4.10;69.20
19180;DHT22;9722;48.754;8.868;2022-12-11T11:23:49;4.10;69.50
19180;DHT22;9722;48.754;8.868;2022-12-11T11:27:34;4.00;69.60
19180;DHT22;9722;48.754;8.868;2022-12-11T11:31:15;4.00;69.90
19180;DHT22;9722;48.754;8.868;2022-12-11T11:34:36;4.10;70.30
19180;DHT22;9722;48.754;8.868;2022-12-11T11:41:36;4.40;70.50
19180;DHT22;9722;48.754;8.868;2022-12-11T11:45:08;4.50;70.40
19180;DHT22;9722;48.754;8.868;2022-12-11T11:52:23;4.60;70.20
19180;DHT22;9722;48.754;8.868;2022-12-11T11:56:01;4.60;69.90
19180;DHT22;9722;48.754;8.868;2022-12-11T11:59:24;4.70;70.00
19180;DHT22;9722;48.754;8.868;2022-12-11T12:02:53;4.60;69.90
19180;DHT22;9722;48.754;8.868;2022-12-11T12:06:38;4.60;70.00
19180;DHT22;9722;48.754;8.868;2022-12-11T12:10:28;4.50;70.20
19180;DHT22;9722;48.754;8.868;2022-12-11T12:17:56;4.30;70.60
19180;DHT22;9722;48.754;8.868;2022-12-11T12:25:05;4.10;70.80
19180;DHT22;9722;48.754;8.868;2022-12-11T12:28:50;4.10;71.10
19180;DHT22;9722;48.754;8.868;2022-12-11T12:32:30;4.00;71.10
19180;DHT22;9722;48.754;8.868;2022-12-11T12:43:18;3.90;71.20
19180;DHT22;9722;48.754;8.868;2022-12-11T12:47:04;3.90;71.30
19180;DHT22;9722;48.754;8.868;2022-12-11T12:50:37;3.80;71.40
19180;DHT22;9722;48.754;8.868;2022-12-11T12:54:02;3.80;71.50
19180;DHT22;9722;48.754;8.868;2022-12-11T12:57:23;3.80;71.50
19180;DHT22;9722;48.754;8.868;2022-12-11T13:00:43;3.80;71.50
19180;DHT22;9722;48.754;8.868;2022-12-11T13:04:05;3.70;71.30
19180;DHT22;9722;48.754;8.868;2022-12-11T13:07:30;3.50;71.10
19180;DHT22;9722;48.754;8.868;2022-12-11T13:11:03;3.40;71.70
19180;DHT22;9722;48.754;8.868;2022-12-11T13:14:30;3.30;72.10
19180;DHT22;9722;48.754;8.868;2022-12-11T13:17:51;3.30;72.40
19180;DHT22;9722;48.754;8.868;2022-12-11T13:21:34;3.30;72.70
19180;DHT22;9722;48.754;8.868;2022-12-11T13:25:15;3.30;72.80
19180;DHT22;9722;48.754;8.868;2022-12-11T13:35:31;3.30;73.40
19180;DHT22;9722;48.754;8.868;2022-12-11T13:39:03;3.30;73.50
19180;DHT22;9722;48.754;8.868;2022-12-11T13:42:39;3.40;73.50
19180;DHT22;9722;48.754;8.868;2022-12-11T13:46:07;3.40;73.30
19180;DHT22;9722;48.754;8.868;2022-12-11T13:49:35;3.50;73.40
19180;DHT22;9722;48.754;8.868;2022-12-11T13:52:58;3.40;73.20
19180;DHT22;9722;48.754;8.868;2022-12-11T13:56:21;3.40;73.40
19180;DHT22;9722;48.754;8.868;2022-12-11T13:59:46;3.20;73.40
19180;DHT22;9722;48.754;8.868;2022-12-11T14:03:09;3.20;73.60
19180;DHT22;9722;48.754;8.868;2022-12-11T14:06:32;3.00;73.70
19180;DHT22;9722;48.754;8.868;2022-12-11T14:09:59;3.00;74.10
19180;DHT22;9722;48.754;8.868;2022-12-11T14:13:25;2.80;74.00
19180;DHT22;9722;48.754;8.868;2022-12-11T14:16:50;2.60;74.20
19180;DHT22;9722;48.754;8.868;2022-12-11T14:20:37;2.50;74.70
19180;DHT22;9722;48.754;8.868;2022-12-11T14:24:00;2.30;75.00
19180;DHT22;9722;48.754;8.868;2022-12-11T14:27:21;2.10;75.40
19180;DHT22;9722;48.754;8.868;2022-12-11T14:30:48;2.00;76.00
19180;DHT22;9722;48.754;8.868;2022-12-11T14:34:24;1.80;76.20
19180;DHT22;9722;48.754;8.868;2022-12-11T14:37:45;1.70;76.70
19180;DHT22;9722;48.754;8.868;2022-12-11T14:41:12;1.50;77.00
19180;DHT22;9722;48.754;8.868;2022-12-11T14:44:58;1.40;77.50
19180;DHT22;9722;48.754;8.868;2022-12-11T14:48:24;1.20;77.90
19180;DHT22;9722;48.754;8.868;2022-12-11T14:51:47;1.10;78.30
19180;DHT22;9722;48.754;8.868;2022-12-11T14:55:15;1.00;78.80
19180;DHT22;9722;48.754;8.868;2022-12-11T14:58:41;1.00;79.40
19180;DHT22;9722;48.754;8.868;2022-12-11T15:05:49;0.80;80.20
19180;DHT22;9722;48.754;8.868;2022-12-11T15:12:46;0.80;81.10
19180;DHT22;9722;48.754;8.868;2022-12-11T15:16:06;0.80;81.40
19180;DHT22;9722;48.754;8.868;2022-12-11T15:19:30;0.80;81.70
19180;DHT22;9722;48.754;8.868;2022-12-11T15:22:52;0.80;81.90
19180;DHT22;9722;48.754;8.868;2022-12-11T15:26:13;0.80;82.20
19180;DHT22;9722;48.754;8.868;2022-12-11T15:29:37;0.80;82.40
19180;DHT22;9722;48.754;8.868;2022-12-11T15:36:35;0.70;82.70
19180;DHT22;9722;48.754;8.868;2022-12-11T15:40:01;0.60;82.90
19180;DHT22;9722;48.754;8.868;2022-12-11T15:43:23;0.60;83.20
19180;DHT22;9722;48.754;8.868;2022-12-11T15:46:43;0.50;83.50
19180;DHT22;9722;48.754;8.868;2022-12-11T15:53:38;0.40;84.40
19180;DHT22;9722;48.754;8.868;2022-12-11T15:57:02;0.30;84.70
19180;DHT22;9722;48.754;8.868;2022-12-11T16:00:24;0.40;85.40
19180;DHT22;9722;48.754;8.868;2022-12-11T16:03:46;0.40;85.50
19180;DHT22;9722;48.754;8.868;2022-12-11T16:07:18;0.40;85.80
19180;DHT22;9722;48.754;8.868;2022-12-11T16:10:41;0.50;86.10
19180;DHT22;9722;48.754;8.868;2022-12-11T16:14:02;0.50;86.10
19180;DHT22;9722;48.754;8.868;2022-12-11T16:17:23;0.60;86.30
19180;DHT22;9722;48.754;8.868;2022-12-11T16:20:45;0.50;86.30
19180;DHT22;9722;48.754;8.868;2022-12-11T16:24:05;0.60;86.50
19180;DHT22;9722;48.754;8.868;2022-12-11T16:27:26;0.50;86.50
19180;DHT22;9722;48.754;8.868;2022-12-11T16:30:47;0.50;86.60
19180;DHT22;9722;48.754;8.868;2022-12-11T16:34:08;0.40;86.70
19180;DHT22;9722;48.754;8.868;2022-12-11T16:37:28;0.40;87.20
19180;DHT22;9722;48.754;8.868;2022-12-11T16:40:58;0.40;87.30
19180;DHT22;9722;48.754;8.868;2022-12-11T16:44:20;0.40;87.60
19180;DHT22;9722;48.754;8.868;2022-12-11T16:47:42;0.40;87.80
19180;DHT22;9722;48.754;8.868;2022-12-11T16:51:03;0.40;88.00
19180;DHT22;9722;48.754;8.868;2022-12-11T16:54:23;0.30;88.20
19180;DHT22;9722;48.754;8.868;2022-12-11T16:57:44;0.30;88.40
19180;DHT22;9722;48.754;8.868;2022-12-11T17:01:08;0.30;88.40
19180;DHT22;9722;48.754;8.868;2022-12-11T17:04:31;0.30;88.50
19180;DHT22;9722;48.754;8.868;2022-12-11T17:07:51;0.30;88.80
19180;DHT22;9722;48.754;8.868;2022-12-11T17:11:14;0.30;89.00
19180;DHT22;9722;48.754;8.868;2022-12-11T17:14:35;0.30;89.20
19180;DHT22;9722;48.754;8.868;2022-12-11T17:17:56;0.30;89.50
19180;DHT22;9722;48.754;8.868;2022-12-11T17:21:19;0.30;89.80
19180;DHT22;9722;48.754;8.868;2022-12-11T17:24:40;0.40;90.00
19180;DHT22;9722;48.754;8.868;2022-12-11T17:28:00;0.30;89.80
19180;DHT22;9722;48.754;8.868;2022-12-11T17:31:21;0.30;89.80
19180;DHT22;9722;48.754;8.868;2022-12-11T17:34:41;0.30;90.00
19180;DHT22;9722;48.754;8.868;2022-12-11T17:38:02;0.20;90.10
19180;DHT22;9722;48.754;8.868;2022-12-11T17:41:23;0.10;90.20
19180;DHT22;9722;48.754;8.868;2022-12-11T17:44:43;0.00;90.30
19180;DHT22;9722;48.754;8.868;2022-12-11T17:48:05;-0.10;90.40
19180;DHT22;9722;48.754;8.868;2022-12-11T17:51:25;-0.10;90.60
19180;DHT22;9722;48.754;8.868;2022-12-11T17:54:46;-0.10;90.70
19180;DHT22;9722;48.754;8.868;2022-12-11T17:58:27;-0.20;90.80
19180;DHT22;9722;48.754;8.868;2022-12-11T18:01:49;-0.20;90.90
19180;DHT22;9722;48.754;8.868;2022-12-11T18:05:09;-0.30;91.00
19180;DHT22;9722;48.754;8.868;2022-12-11T18:08:31;-0.30;91.20
19180;DHT22;9722;48.754;8.868;2022-12-11T18:11:51;-0.30;91.30
19180;DHT22;9722;48.754;8.868;2022-12-11T18:15:12;-0.20;91.50
19180;DHT22;9722;48.754;8.868;2022-12-11T18:18:33;-0.20;91.50
19180;DHT22;9722;48.754;8.868;2022-12-11T18:21:54;-0.30;91.50
19180;DHT22;9722;48.754;8.868;2022-12-11T18:25:15;-0.30;91.50
19180;DHT22;9722;48.754;8.868;2022-12-11T18:28:36;-0.30;91.50
19180;DHT22;9722;48.754;8.868;2022-12-11T18:31:57;-0.20;91.70
19180;DHT22;9722;48.754;8.868;2022-12-11T18:35:17;-0.30;91.70
19180;DHT22;9722;48.754;8.868;2022-12-11T18:38:39;-0.30;91.70
19180;DHT22;9722;48.754;8.868;2022-12-11T18:42:00;-0.40;91.90
19180;DHT22;9722;48.754;8.868;2022-12-11T18:45:21;-0.50;91.90
19180;DHT22;9722;48.754;8.868;2022-12-11T18:48:42;-0.50;92.00
19180;DHT22;9722;48.754;8.868;2022-12-11T18:52:03;-0.50;92.20
19180;DHT22;9722;48.754;8.868;2022-12-11T18:55:24;-0.50;92.20
19180;DHT22;9722;48.754;8.868;2022-12-11T18:58:44;-0.50;92.20
19180;DHT22;9722;48.754;8.868;2022-12-11T19:02:05;-0.60;92.30
19180;DHT22;9722;48.754;8.868;2022-12-11T19:05:25;-0.60;92.30
19180;DHT22;9722;48.754;8.868;2022-12-11T19:08:46;-0.70;92.50
19180;DHT22;9722;48.754;8.868;2022-12-11T19:12:07;-0.70;92.60
19180;DHT22;9722;48.754;8.868;2022-12-11T19:15:27;-0.70;92.70
19180;DHT22;9722;48.754;8.868;2022-12-11T19:18:48;-0.70;92.80
19180;DHT22;9722;48.754;8.868;2022-12-11T19:22:09;-0.60;92.80
19180;DHT22;9722;48.754;8.868;2022-12-11T19:25:30;-0.60;92.80
19180;DHT22;9722;48.754;8.868;2022-12-11T19:28:51;-0.60;92.70
19180;DHT22;9722;48.754;8.868;2022-12-11T19:32:12;-0.70;92.70
19180;DHT22;9722;48.754;8.868;2022-12-11T19:35:33;-0.80;92.80
19180;DHT22;9722;48.754;8.868;2022-12-11T19:38:54;-0.80;92.90
19180;DHT22;9722;48.754;8.868;2022-12-11T19:42:15;-0.80;93.00
19180;DHT22;9722;48.754;8.868;2022-12-11T19:45:35;-0.80;93.00
19180;DHT22;9722;48.754;8.868;2022-12-11T19:48:57;-0.80;93.10
19180;DHT22;9722;48.754;8.868;2022-12-11T19:52:18;-0.80;93.10
19180;DHT22;9722;48.754;8.868;2022-12-11T19:55:38;-0.90;92.90
19180;DHT22;9722;48.754;8.868;2022-12-11T19:59:04;-1.00;93.00
19180;DHT22;9722;48.754;8.868;2022-12-11T20:02:25;-1.10;93.20
19180;DHT22;9722;48.754;8.868;2022-12-11T20:05:47;-1.10;93.30
19180;DHT22;9722;48.754;8.868;2022-12-11T20:09:09;-1.20;93.50
19180;DHT22;9722;48.754;8.868;2022-12-11T20:12:31;-1.10;93.60
19180;DHT22;9722;48.754;8.868;2022-12-11T20:15:51;-1.00;93.60
19180;DHT22;9722;48.754;8.868;2022-12-11T20:19:12;-1.00;93.60
19180;DHT22;9722;48.754;8.868;2022-12-11T20:22:33;-1.00;93.50
19180;DHT22;9722;48.754;8.868;2022-12-11T20:25:53;-1.00;93.40
19180;DHT22;9722;48.754;8.868;2022-12-11T20:29:14;-1.10;93.40
19180;DHT22;9722;48.754;8.868;2022-12-11T20:32:35;-1.20;93.50
19180;DHT22;9722;48.754;8.868;2022-12-11T20:35:56;-1.30;93.50
19180;DHT22;9722;48.754;8.868;2022-12-11T20:39:16;-1.30;93.50
19180;DHT22;9722;48.754;8.868;2022-12-11T20:42:37;-1.40;93.50
19180;DHT22;9722;48.754;8.868;2022-12-11T20:45:58;-1.50;93.60
19180;DHT22;9722;48.754;8.868;2022-12-11T20:49:19;-1.50;93.90
19180;DHT22;9722;48.754;8.868;2022-12-11T20:52:39;-1.50;94.00
19180;DHT22;9722;48.754;8.868;2022-12-11T20:56:01;-1.50;94.00
19180;DHT22;9722;48.754;8.868;2022-12-11T20:59:22;-1.40;94.10
19180;DHT22;9722;48.754;8.868;2022-12-11T21:02:43;-1.40;94.20
19180;DHT22;9722;48.754;8.868;2022-12-11T21:06:04;-1.30;94.20
19180;DHT22;9722;48.754;8.868;2022-12-11T21:09:25;-1.20;94.30
19180;DHT22;9722;48.754;8.868;2022-12-11T21:12:46;-1.10;94.20
19180;DHT22;9722;48.754;8.868;2022-12-11T21:16:07;-1.10;94.10
19180;DHT22;9722;48.754;8.868;2022-12-11T21:19:27;-1.10;94.00
19180;DHT22;9722;48.754;8.868;2022-12-11T21:22:48;-1.10;94.00
19180;DHT22;9722;48.754;8.868;2022-12-11T21:26:09;-1.00;94.10
19180;DHT22;9722;48.754;8.868;2022-12-11T21:29:29;-1.00;94.10
19180;DHT22;9722;48.754;8.868;2022-12-11T21:32:50;-0.90;94.10
19180;DHT22;9722;48.754;8.868;2022-12-11T21:36:12;-0.80;94.10
19180;DHT22;9722;48.754;8.868;2022-12-11T21:39:32;-0.80;94.00
19180;DHT22;9722;48.754;8.868;2022-12-11T21:42:53;-0.80;93.80
19180;DHT22;9722;48.754;8.868;2022-12-11T21:46:19;-0.80;93.70
19180;DHT22;9722;48.754;8.868;2022-12-11T21:49:40;-0.70;93.70
19180;DHT22;9722;48.754;8.868;2022-12-11T21:53:01;-0.70;93.70
19180;DHT22;9722;48.754;8.868;2022-12-11T21:56:23;-0.70;93.40
19180;DHT22;9722;48.754;8.868;2022-12-11T21:59:44;-0.80;93.20
19180;DHT22;9722;48.754;8.868;2022-12-11T22:03:05;-0.80;93.30
19180;DHT22;9722;48.754;8.868;2022-12-11T22:06:25;-0.90;93.20
19180;DHT22;9722;48.754;8.868;2022-12-11T22:09:46;-0.90;93.10
19180;DHT22;9722;48.754;8.868;2022-12-11T22:13:06;-1.00;93.20
19180;DHT22;9722;48.754;8.868;2022-12-11T22:16:27;-1.00;93.30
19180;DHT22;9722;48.754;8.868;2022-12-11T22:19:48;-1.00;93.30
19180;DHT22;9722;48.754;8.868;2022-12-11T22:23:11;-1.00;93.20
19180;DHT22;9722;48.754;8.868;2022-12-11T22:26:32;-1.00;93.20
19180;DHT22;9722;48.754;8.868;2022-12-11T22:29:52;-1.00;93.20
19180;DHT22;9722;48.754;8.868;2022-12-11T22:33:14;-1.10;93.10
19180;DHT22;9722;48.754;8.868;2022-12-11T22:36:34;-1.10;93.20
19180;DHT22;9722;48.754;8.868;2022-12-11T22:39:56;-1.10;93.30
19180;DHT22;9722;48.754;8.868;2022-12-11T22:43:16;-1.10;93.40
19180;DHT22;9722;48.754;8.868;2022-12-11T22:46:37;-1.10;93.40
19180;DHT22;9722;48.754;8.868;2022-12-11T22:49:57;-1.10;93.30
19180;DHT22;9722;48.754;8.868;2022-12-11T22:53:18;-1.10;93.20
19180;DHT22;9722;48.754;8.868;2022-12-11T22:56:38;-1.10;93.20
19180;DHT22;9722;48.754;8.868;2022-12-11T22:59:59;-1.20;93.20
19180;DHT22;9722;48.754;8.868;2022-12-11T23:03:19;-1.20;93.30